This is the latest recevied weather packets stored in our database for station/object K0UND-1. If no packets are shown the sender has not sent any weather packets the latest 1 day(s).
| Time | Temp. | Humidity | Pressure | Rain* | Wind** | Luminosity | Snow |
|---|---|---|---|---|---|---|---|
| 1778050806 | 1.11° C | 64% | 1016.3 hPa | 0 mm | 2.68 m/s, 310° | - | - |
| 1778047210 | 2.22° C | 55% | 1016.3 hPa | 0 mm | 3.58 m/s, 330° | - | - |
| 1778043606 | 2.22° C | 55% | 1015.9 hPa | 0 mm | 3.13 m/s, 350° | - | - |
| 1778040008 | 2.22° C | 55% | 1015.9 hPa | 0 mm | 4.47 m/s, 0° | - | - |
| 1778036406 | 2.22° C | 55% | 1015.6 hPa | 0 mm | 3.13 m/s, 0° | - | - |
| 1778032811 | 2.78° C | 52% | 1014.6 hPa | 0 mm | 3.58 m/s, 350° | - | - |
| 1778025609 | 3.89° C | 48% | 1013.9 hPa | 0 mm | 6.26 m/s, 330° | - | - |
| 1778022015 | 3.89° C | 48% | 1013.9 hPa | 0 mm | 5.81 m/s, 330° | - | - |
| 1778018408 | 5° C | 45% | 1013.9 hPa | 0 mm | 7.6 m/s, 340° | - | - |
| 1778014808 | 5° C | 45% | 1013.5 hPa | 0 mm | 6.26 m/s, 330° | - | - |
| 1778011205 | 5° C | 42% | 1013.5 hPa | 0 mm | 6.26 m/s, 340° | - | - |
| 1778007621 | 5° C | 42% | 1012.9 hPa | 0 mm | 7.6 m/s, 340° | - | - |
| 1778004007 | 3.89° C | 48% | 1012.9 hPa | 0 mm | 7.15 m/s, 350° | - | - |
| 1778000409 | 2.78° C | 52% | 1012.9 hPa | 0 mm | 7.15 m/s, 350° | - | - |
| 1777993206 | 1.11° C | 69% | 1012.2 hPa | 0 mm | 7.6 m/s, 0° | - | - |
| 1777989607 | 1.11° C | 69% | 1011.5 hPa | 0 mm | 5.81 m/s, 340° | - | - |
| 1777986010 | 0° C | 74% | 1010.8 hPa | 0 mm | 4.92 m/s, 330° | - | - |
| 1777982418 | 0° C | 80% | 1010.2 hPa | 0 mm | 3.58 m/s, 310° | - | - |
| 1777978809 | 0° C | 74% | 1009.8 hPa | 0 mm | 3.13 m/s, 320° | - | - |
| 1777975204 | 0° C | 74% | 1009.5 hPa | 0 mm | 2.24 m/s, 340° | - | - |
| 1777971608 | 0° C | 74% | 1009.5 hPa | 0 mm | 2.24 m/s, 340° | - | - |
| 1777968006 | 0° C | 74% | 1009.1 hPa | 0 mm | 2.24 m/s, 330° | - | - |
* Rain latest hour (hover to see other rain measurements)
** Current wind speed in m/s (hover to see current wind gust speed)